sensor_id;sensor_type;location;lat;lon;timestamp;pressure;altitude;pressure_sealevel;temperature;humidity
79127;BME280;68528;48.814;8.904;2023-09-08T00:01:56;96647.59;;;13.44;88.25
79127;BME280;68528;48.814;8.904;2023-09-08T00:04:22;96643.59;;;13.38;88.14
79127;BME280;68528;48.814;8.904;2023-09-08T00:07:06;96635.66;;;13.33;88.06
79127;BME280;68528;48.814;8.904;2023-09-08T00:09:32;96643.44;;;13.24;88.43
79127;BME280;68528;48.814;8.904;2023-09-08T00:11:59;96639.47;;;13.21;88.20
79127;BME280;68528;48.814;8.904;2023-09-08T00:14:24;96634.31;;;13.16;88.41
79127;BME280;68528;48.814;8.904;2023-09-08T00:16:51;96643.25;;;13.10;87.96
79127;BME280;68528;48.814;8.904;2023-09-08T00:19:21;96640.19;;;13.15;88.80
79127;BME280;68528;48.814;8.904;2023-09-08T00:21:47;96639.00;;;13.16;88.59
79127;BME280;68528;48.814;8.904;2023-09-08T00:27:09;96631.91;;;13.11;88.48
79127;BME280;68528;48.814;8.904;2023-09-08T00:29:37;96635.34;;;13.05;88.95
79127;BME280;68528;48.814;8.904;2023-09-08T00:32:04;96636.19;;;13.09;89.16
79127;BME280;68528;48.814;8.904;2023-09-08T00:34:29;96624.25;;;13.01;89.50
79127;BME280;68528;48.814;8.904;2023-09-08T00:36:55;96631.53;;;13.13;89.96
79127;BME280;68528;48.814;8.904;2023-09-08T00:39:20;96634.28;;;13.13;89.67
79127;BME280;68528;48.814;8.904;2023-09-08T00:41:45;96638.59;;;13.14;89.88
79127;BME280;68528;48.814;8.904;2023-09-08T00:44:11;96632.22;;;13.06;89.77
79127;BME280;68528;48.814;8.904;2023-09-08T00:46:36;96633.28;;;12.98;89.35
79127;BME280;68528;48.814;8.904;2023-09-08T00:49:02;96633.56;;;12.90;90.12
79127;BME280;68528;48.814;8.904;2023-09-08T00:51:28;96632.38;;;12.91;89.72
79127;BME280;68528;48.814;8.904;2023-09-08T00:53:53;96632.34;;;12.87;89.84
79127;BME280;68528;48.814;8.904;2023-09-08T00:56:20;96630.44;;;12.91;90.19
79127;BME280;68528;48.814;8.904;2023-09-08T00:58:46;96631.50;;;12.83;90.63
79127;BME280;68528;48.814;8.904;2023-09-08T01:01:11;96630.28;;;12.81;90.36
79127;BME280;68528;48.814;8.904;2023-09-08T01:03:38;96629.88;;;12.79;90.57
79127;BME280;68528;48.814;8.904;2023-09-08T01:06:03;96635.78;;;12.81;90.59
79127;BME280;68528;48.814;8.904;2023-09-08T01:08:29;96629.47;;;12.77;90.64
79127;BME280;68528;48.814;8.904;2023-09-08T01:10:55;96632.50;;;12.72;91.07
79127;BME280;68528;48.814;8.904;2023-09-08T01:13:21;96625.03;;;12.69;91.41
79127;BME280;68528;48.814;8.904;2023-09-08T01:15:48;96623.84;;;12.70;90.97
79127;BME280;68528;48.814;8.904;2023-09-08T01:18:13;96620.09;;;12.81;92.15
79127;BME280;68528;48.814;8.904;2023-09-08T01:26:08;96615.56;;;12.96;92.12
79127;BME280;68528;48.814;8.904;2023-09-08T01:28:34;96619.00;;;12.89;91.83
79127;BME280;68528;48.814;8.904;2023-09-08T01:31:02;96617.13;;;12.97;92.06
79127;BME280;68528;48.814;8.904;2023-09-08T01:33:27;96620.22;;;12.92;91.15
79127;BME280;68528;48.814;8.904;2023-09-08T01:35:56;96613.78;;;12.77;91.37
79127;BME280;68528;48.814;8.904;2023-09-08T01:38:24;96616.03;;;12.72;91.61
79127;BME280;68528;48.814;8.904;2023-09-08T01:40:49;96620.00;;;12.74;91.21
79127;BME280;68528;48.814;8.904;2023-09-08T01:43:15;96624.69;;;12.74;91.59
79127;BME280;68528;48.814;8.904;2023-09-08T01:45:40;96616.94;;;12.79;91.93
79127;BME280;68528;48.814;8.904;2023-09-08T01:48:06;96615.47;;;12.89;91.84
79127;BME280;68528;48.814;8.904;2023-09-08T01:50:31;96617.06;;;12.90;91.32
79127;BME280;68528;48.814;8.904;2023-09-08T01:52:57;96613.13;;;12.91;91.19
79127;BME280;68528;48.814;8.904;2023-09-08T01:55:22;96601.97;;;12.77;91.37
79127;BME280;68528;48.814;8.904;2023-09-08T01:57:48;96609.34;;;12.69;91.54
79127;BME280;68528;48.814;8.904;2023-09-08T02:00:14;96613.63;;;12.67;91.63
79127;BME280;68528;48.814;8.904;2023-09-08T02:02:40;96612.00;;;12.62;91.24
79127;BME280;68528;48.814;8.904;2023-09-08T02:05:06;96600.44;;;12.49;91.79
79127;BME280;68528;48.814;8.904;2023-09-08T02:07:33;96610.25;;;12.50;92.04
79127;BME280;68528;48.814;8.904;2023-09-08T02:09:58;96595.63;;;12.43;91.82
79127;BME280;68528;48.814;8.904;2023-09-08T02:12:23;96606.72;;;12.50;91.87
79127;BME280;68528;48.814;8.904;2023-09-08T02:14:49;96607.91;;;12.52;92.16
79127;BME280;68528;48.814;8.904;2023-09-08T02:17:14;96612.22;;;12.50;92.17
79127;BME280;68528;48.814;8.904;2023-09-08T02:19:40;96614.16;;;12.49;91.85
79127;BME280;68528;48.814;8.904;2023-09-08T02:22:05;96607.03;;;12.45;91.88
79127;BME280;68528;48.814;8.904;2023-09-08T02:24:31;96611.00;;;12.47;91.71
79127;BME280;68528;48.814;8.904;2023-09-08T02:26:57;96610.59;;;12.45;91.98
79127;BME280;68528;48.814;8.904;2023-09-08T02:29:23;96609.31;;;12.39;92.17
79127;BME280;68528;48.814;8.904;2023-09-08T02:31:48;96612.38;;;12.34;92.22
79127;BME280;68528;48.814;8.904;2023-09-08T02:34:20;96608.03;;;12.33;92.39
79127;BME280;68528;48.814;8.904;2023-09-08T02:36:46;96612.69;;;12.29;92.11
79127;BME280;68528;48.814;8.904;2023-09-08T02:39:13;96604.03;;;12.27;92.05
79127;BME280;68528;48.814;8.904;2023-09-08T02:41:38;96600.44;;;12.23;92.42
79127;BME280;68528;48.814;8.904;2023-09-08T02:44:05;96595.59;;;12.13;92.57
79127;BME280;68528;48.814;8.904;2023-09-08T02:46:30;96599.56;;;12.16;92.49
79127;BME280;68528;48.814;8.904;2023-09-08T02:48:56;96596.31;;;12.10;92.41
79127;BME280;68528;48.814;8.904;2023-09-08T02:51:21;96602.81;;;11.99;93.18
79127;BME280;68528;48.814;8.904;2023-09-08T02:53:47;96604.13;;;12.08;92.86
79127;BME280;68528;48.814;8.904;2023-09-08T02:56:13;96596.38;;;12.14;93.18
79127;BME280;68528;48.814;8.904;2023-09-08T02:58:39;96586.03;;;12.04;92.79
79127;BME280;68528;48.814;8.904;2023-09-08T03:01:17;96605.84;;;12.16;93.08
79127;BME280;68528;48.814;8.904;2023-09-08T03:03:45;96601.88;;;12.14;93.24
79127;BME280;68528;48.814;8.904;2023-09-08T03:06:11;96599.94;;;12.14;93.23
79127;BME280;68528;48.814;8.904;2023-09-08T03:08:37;96597.19;;;12.14;93.63
79127;BME280;68528;48.814;8.904;2023-09-08T03:11:04;96594.75;;;12.09;93.53
79127;BME280;68528;48.814;8.904;2023-09-08T03:13:33;96589.56;;;12.04;93.97
79127;BME280;68528;48.814;8.904;2023-09-08T03:16:07;96600.53;;;12.04;93.87
79127;BME280;68528;48.814;8.904;2023-09-08T03:18:33;96593.78;;;11.98;93.50
79127;BME280;68528;48.814;8.904;2023-09-08T03:20:59;96595.31;;;11.96;93.34
79127;BME280;68528;48.814;8.904;2023-09-08T03:23:37;96600.75;;;11.92;93.35
79127;BME280;68528;48.814;8.904;2023-09-08T03:26:02;96580.13;;;11.79;93.43
79127;BME280;68528;48.814;8.904;2023-09-08T03:28:28;96595.56;;;11.87;93.72
79127;BME280;68528;48.814;8.904;2023-09-08T03:30:53;96599.03;;;11.84;93.78
79127;BME280;68528;48.814;8.904;2023-09-08T03:33:19;96595.13;;;11.85;94.36
79127;BME280;68528;48.814;8.904;2023-09-08T03:35:44;96592.28;;;11.78;94.82
79127;BME280;68528;48.814;8.904;2023-09-08T03:38:10;96591.13;;;11.79;94.75
79127;BME280;68528;48.814;8.904;2023-09-08T03:40:35;96594.97;;;11.74;94.85
79127;BME280;68528;48.814;8.904;2023-09-08T03:43:02;96592.59;;;11.73;94.99
79127;BME280;68528;48.814;8.904;2023-09-08T03:45:28;96594.22;;;11.77;95.04
79127;BME280;68528;48.814;8.904;2023-09-08T03:47:56;96582.03;;;11.75;94.68
79127;BME280;68528;48.814;8.904;2023-09-08T03:50:26;96588.69;;;11.74;94.46
79127;BME280;68528;48.814;8.904;2023-09-08T03:53:12;96587.16;;;11.76;94.60
79127;BME280;68528;48.814;8.904;2023-09-08T03:55:38;96589.59;;;11.81;94.60
79127;BME280;68528;48.814;8.904;2023-09-08T03:58:03;96591.97;;;11.83;94.67
79127;BME280;68528;48.814;8.904;2023-09-08T04:00:29;96587.16;;;11.76;94.85
79127;BME280;68528;48.814;8.904;2023-09-08T04:02:54;96596.56;;;11.75;94.69
79127;BME280;68528;48.814;8.904;2023-09-08T04:05:20;96607.09;;;11.73;94.65
79127;BME280;68528;48.814;8.904;2023-09-08T04:07:47;96604.59;;;11.88;94.88
79127;BME280;68528;48.814;8.904;2023-09-08T04:10:12;96606.53;;;11.87;95.19
79127;BME280;68528;48.814;8.904;2023-09-08T04:12:41;96599.47;;;11.86;94.63
79127;BME280;68528;48.814;8.904;2023-09-08T04:15:07;96606.06;;;11.81;94.61
79127;BME280;68528;48.814;8.904;2023-09-08T04:17:34;96603.69;;;11.80;94.36
79127;BME280;68528;48.814;8.904;2023-09-08T04:20:02;96599.97;;;11.69;94.37
79127;BME280;68528;48.814;8.904;2023-09-08T04:22:30;96601.63;;;11.73;94.36
79127;BME280;68528;48.814;8.904;2023-09-08T04:24:56;96604.75;;;11.72;94.61
79127;BME280;68528;48.814;8.904;2023-09-08T04:27:23;96602.84;;;11.76;94.92
79127;BME280;68528;48.814;8.904;2023-09-08T04:29:49;96603.56;;;11.73;94.37
79127;BME280;68528;48.814;8.904;2023-09-08T04:32:14;96599.66;;;11.74;94.38
79127;BME280;68528;48.814;8.904;2023-09-08T04:34:41;96604.28;;;11.70;94.60
79127;BME280;68528;48.814;8.904;2023-09-08T04:37:07;96605.72;;;11.64;94.35
79127;BME280;68528;48.814;8.904;2023-09-08T04:39:33;96613.53;;;11.62;94.44
79127;BME280;68528;48.814;8.904;2023-09-08T04:42:01;96611.88;;;11.57;94.93
79127;BME280;68528;48.814;8.904;2023-09-08T04:44:28;96613.53;;;11.62;95.03
79127;BME280;68528;48.814;8.904;2023-09-08T04:46:54;96614.06;;;11.67;95.02
79127;BME280;68528;48.814;8.904;2023-09-08T04:49:20;96617.44;;;11.61;95.15
79127;BME280;68528;48.814;8.904;2023-09-08T04:51:46;96608.34;;;11.57;95.13
79127;BME280;68528;48.814;8.904;2023-09-08T04:54:11;96615.72;;;11.53;95.13
79127;BME280;68528;48.814;8.904;2023-09-08T04:56:40;96623.97;;;11.53;95.14
79127;BME280;68528;48.814;8.904;2023-09-08T04:59:07;96615.72;;;11.53;94.83
79127;BME280;68528;48.814;8.904;2023-09-08T05:01:33;96620.41;;;11.52;95.11
79127;BME280;68528;48.814;8.904;2023-09-08T05:04:01;96622.06;;;11.57;94.93
79127;BME280;68528;48.814;8.904;2023-09-08T05:06:28;96622.19;;;11.64;94.94
79127;BME280;68528;48.814;8.904;2023-09-08T05:08:54;96627.78;;;11.67;95.04
79127;BME280;68528;48.814;8.904;2023-09-08T05:11:19;96621.91;;;11.69;95.10
79127;BME280;68528;48.814;8.904;2023-09-08T05:13:46;96621.53;;;11.70;94.93
79127;BME280;68528;48.814;8.904;2023-09-08T05:16:11;96617.56;;;11.68;95.12
79127;BME280;68528;48.814;8.904;2023-09-08T05:18:41;96627.41;;;11.69;95.42
79127;BME280;68528;48.814;8.904;2023-09-08T05:21:07;96628.69;;;11.75;95.47
79127;BME280;68528;48.814;8.904;2023-09-08T05:23:34;96629.84;;;11.74;95.98
79127;BME280;68528;48.814;8.904;2023-09-08T05:26:00;96640.50;;;11.79;95.83
79127;BME280;68528;48.814;8.904;2023-09-08T05:28:27;96628.00;;;11.81;95.51
79127;BME280;68528;48.814;8.904;2023-09-08T05:30:53;96628.06;;;11.85;95.36
79127;BME280;68528;48.814;8.904;2023-09-08T05:33:28;96630.50;;;11.90;95.41
79127;BME280;68528;48.814;8.904;2023-09-08T05:35:53;96636.41;;;11.92;95.83
79127;BME280;68528;48.814;8.904;2023-09-08T05:38:20;96631.41;;;11.98;95.07
79127;BME280;68528;48.814;8.904;2023-09-08T05:40:46;96645.56;;;12.00;96.25
79127;BME280;68528;48.814;8.904;2023-09-08T05:43:11;96636.22;;;12.04;96.62
79127;BME280;68528;48.814;8.904;2023-09-08T05:45:38;96645.00;;;12.13;95.96
79127;BME280;68528;48.814;8.904;2023-09-08T05:48:04;96639.97;;;12.19;96.90
79127;BME280;68528;48.814;8.904;2023-09-08T05:50:31;96640.94;;;12.30;97.04
79127;BME280;68528;48.814;8.904;2023-09-08T05:53:17;96643.47;;;12.68;97.06
79127;BME280;68528;48.814;8.904;2023-09-08T05:55:43;96645.72;;;13.18;96.57
79127;BME280;68528;48.814;8.904;2023-09-08T05:58:12;96642.81;;;13.74;95.82
79127;BME280;68528;48.814;8.904;2023-09-08T06:00:38;96637.41;;;14.29;92.93
79127;BME280;68528;48.814;8.904;2023-09-08T06:03:03;96630.63;;;14.80;90.63
79127;BME280;68528;48.814;8.904;2023-09-08T06:05:29;96632.94;;;15.50;84.85
79127;BME280;68528;48.814;8.904;2023-09-08T06:07:54;96627.88;;;16.05;82.05
79127;BME280;68528;48.814;8.904;2023-09-08T06:10:20;96635.81;;;16.38;81.17
79127;BME280;68528;48.814;8.904;2023-09-08T06:12:45;96634.59;;;16.78;78.49
79127;BME280;68528;48.814;8.904;2023-09-08T06:15:10;96630.91;;;17.13;77.36
79127;BME280;68528;48.814;8.904;2023-09-08T06:17:36;96630.41;;;17.46;75.99
79127;BME280;68528;48.814;8.904;2023-09-08T06:20:02;96632.19;;;17.81;75.30
79127;BME280;68528;48.814;8.904;2023-09-08T06:22:27;96626.22;;;17.89;74.97
79127;BME280;68528;48.814;8.904;2023-09-08T06:24:54;96618.88;;;18.20;73.47
79127;BME280;68528;48.814;8.904;2023-09-08T06:27:20;96625.41;;;18.40;73.05
79127;BME280;68528;48.814;8.904;2023-09-08T06:29:46;96622.78;;;18.70;71.94
79127;BME280;68528;48.814;8.904;2023-09-08T06:32:11;96624.88;;;19.00;71.86
79127;BME280;68528;48.814;8.904;2023-09-08T06:35:00;96628.72;;;19.10;76.56
79127;BME280;68528;48.814;8.904;2023-09-08T06:37:25;96628.22;;;19.52;70.79
79127;BME280;68528;48.814;8.904;2023-09-08T06:42:26;96607.28;;;20.01;73.86
79127;BME280;68528;48.814;8.904;2023-09-08T06:44:51;96615.63;;;20.27;72.55
79127;BME280;68528;48.814;8.904;2023-09-08T06:47:16;96618.03;;;20.72;69.50
79127;BME280;68528;48.814;8.904;2023-09-08T06:49:42;96631.34;;;21.07;68.19
79127;BME280;68528;48.814;8.904;2023-09-08T06:52:07;96625.06;;;21.42;65.31
79127;BME280;68528;48.814;8.904;2023-09-08T06:54:32;96626.03;;;21.71;64.13
79127;BME280;68528;48.814;8.904;2023-09-08T06:56:58;96614.44;;;21.93;62.62
79127;BME280;68528;48.814;8.904;2023-09-08T06:59:23;96621.44;;;22.17;66.87
79127;BME280;68528;48.814;8.904;2023-09-08T07:01:52;96630.53;;;22.53;62.86
79127;BME280;68528;48.814;8.904;2023-09-08T07:04:19;96626.41;;;22.90;60.67
79127;BME280;68528;48.814;8.904;2023-09-08T07:06:44;96618.75;;;23.22;57.98
79127;BME280;68528;48.814;8.904;2023-09-08T07:09:12;96636.41;;;23.48;62.07
79127;BME280;68528;48.814;8.904;2023-09-08T07:11:38;96630.00;;;23.89;59.22
79127;BME280;68528;48.814;8.904;2023-09-08T07:14:03;96628.16;;;24.24;56.87
79127;BME280;68528;48.814;8.904;2023-09-08T07:16:29;96620.97;;;24.48;58.79
79127;BME280;68528;48.814;8.904;2023-09-08T07:18:56;96626.88;;;24.87;56.15
79127;BME280;68528;48.814;8.904;2023-09-08T07:21:21;96628.50;;;25.32;52.11
79127;BME280;68528;48.814;8.904;2023-09-08T07:23:46;96625.91;;;25.59;50.82
79127;BME280;68528;48.814;8.904;2023-09-08T07:26:12;96636.81;;;25.57;52.54
79127;BME280;68528;48.814;8.904;2023-09-08T07:28:37;96641.56;;;25.69;57.26
79127;BME280;68528;48.814;8.904;2023-09-08T07:31:04;96631.22;;;26.09;53.54
79127;BME280;68528;48.814;8.904;2023-09-08T07:33:29;96627.78;;;26.45;51.34
79127;BME280;68528;48.814;8.904;2023-09-08T07:35:55;96626.81;;;26.79;50.27
79127;BME280;68528;48.814;8.904;2023-09-08T07:38:22;96630.28;;;27.10;49.04
79127;BME280;68528;48.814;8.904;2023-09-08T07:40:50;96617.66;;;27.42;48.14
79127;BME280;68528;48.814;8.904;2023-09-08T07:43:15;96619.84;;;27.65;48.80
79127;BME280;68528;48.814;8.904;2023-09-08T07:45:47;96630.91;;;28.05;45.52
79127;BME280;68528;48.814;8.904;2023-09-08T07:48:13;96622.78;;;27.98;49.02
79127;BME280;68528;48.814;8.904;2023-09-08T07:50:38;96620.63;;;28.34;45.72
79127;BME280;68528;48.814;8.904;2023-09-08T07:53:04;96633.88;;;28.43;48.91
79127;BME280;68528;48.814;8.904;2023-09-08T07:55:29;96632.63;;;28.77;45.24
79127;BME280;68528;48.814;8.904;2023-09-08T07:57:55;96627.88;;;29.15;44.64
79127;BME280;68528;48.814;8.904;2023-09-08T08:00:22;96634.28;;;29.16;49.18
79127;BME280;68528;48.814;8.904;2023-09-08T08:02:55;96628.25;;;29.61;43.03
79127;BME280;68528;48.814;8.904;2023-09-08T08:05:21;96631.91;;;29.91;43.17
79127;BME280;68528;48.814;8.904;2023-09-08T08:07:47;96628.41;;;30.10;42.50
79127;BME280;68528;48.814;8.904;2023-09-08T08:10:13;96622.69;;;30.34;41.41
79127;BME280;68528;48.814;8.904;2023-09-08T08:12:39;96623.91;;;30.48;40.21
79127;BME280;68528;48.814;8.904;2023-09-08T08:15:05;96619.88;;;30.34;44.62
79127;BME280;68528;48.814;8.904;2023-09-08T08:17:31;96624.84;;;30.39;41.41
79127;BME280;68528;48.814;8.904;2023-09-08T08:19:57;96622.50;;;30.72;39.07
79127;BME280;68528;48.814;8.904;2023-09-08T08:22:24;96628.56;;;30.65;43.75
79127;BME280;68528;48.814;8.904;2023-09-08T08:24:50;96623.47;;;30.20;43.70
79127;BME280;68528;48.814;8.904;2023-09-08T08:27:21;96617.38;;;30.56;41.41
79127;BME280;68528;48.814;8.904;2023-09-08T08:29:48;96627.28;;;31.01;40.55
79127;BME280;68528;48.814;8.904;2023-09-08T08:32:20;96624.41;;;31.36;39.81
79127;BME280;68528;48.814;8.904;2023-09-08T08:34:49;96620.38;;;31.02;44.15
79127;BME280;68528;48.814;8.904;2023-09-08T08:37:14;96623.22;;;31.02;41.40
79127;BME280;68528;48.814;8.904;2023-09-08T08:39:39;96621.56;;;31.56;39.23
79127;BME280;68528;48.814;8.904;2023-09-08T08:42:32;96628.84;;;31.62;39.15
79127;BME280;68528;48.814;8.904;2023-09-08T08:44:59;96625.13;;;31.11;43.08
79127;BME280;68528;48.814;8.904;2023-09-08T08:47:26;96616.31;;;31.69;39.40
79127;BME280;68528;48.814;8.904;2023-09-08T08:49:53;96624.41;;;31.16;42.34
79127;BME280;68528;48.814;8.904;2023-09-08T08:52:19;96620.13;;;31.40;40.22
79127;BME280;68528;48.814;8.904;2023-09-08T08:54:45;96621.03;;;31.77;41.01
79127;BME280;68528;48.814;8.904;2023-09-08T08:57:11;96626.03;;;31.88;38.95
79127;BME280;68528;48.814;8.904;2023-09-08T08:59:37;96625.28;;;32.13;42.34
79127;BME280;68528;48.814;8.904;2023-09-08T09:02:03;96608.31;;;32.19;43.42
79127;BME280;68528;48.814;8.904;2023-09-08T09:04:32;96614.59;;;32.60;38.26
79127;BME280;68528;48.814;8.904;2023-09-08T09:06:58;96613.63;;;33.05;40.51
79127;BME280;68528;48.814;8.904;2023-09-08T09:09:24;96603.47;;;33.46;36.88
79127;BME280;68528;48.814;8.904;2023-09-08T09:11:50;96593.97;;;33.60;37.00
79127;BME280;68528;48.814;8.904;2023-09-08T09:14:15;96607.84;;;32.94;39.75
79127;BME280;68528;48.814;8.904;2023-09-08T09:16:43;96599.91;;;33.51;36.41
79127;BME280;68528;48.814;8.904;2023-09-08T09:19:09;96616.94;;;33.51;37.00
79127;BME280;68528;48.814;8.904;2023-09-08T09:24:06;96620.91;;;33.17;38.74
79127;BME280;68528;48.814;8.904;2023-09-08T09:26:32;96607.97;;;33.75;35.71
79127;BME280;68528;48.814;8.904;2023-09-08T09:28:58;96611.66;;;34.14;33.60
79127;BME280;68528;48.814;8.904;2023-09-08T09:31:25;96614.69;;;33.83;34.54
79127;BME280;68528;48.814;8.904;2023-09-08T09:34:04;96610.88;;;34.08;32.95
79127;BME280;68528;48.814;8.904;2023-09-08T09:36:30;96610.66;;;34.17;35.84
79127;BME280;68528;48.814;8.904;2023-09-08T09:39:00;96617.16;;;32.94;35.82
79127;BME280;68528;48.814;8.904;2023-09-08T09:41:29;96611.50;;;32.63;36.32
79127;BME280;68528;48.814;8.904;2023-09-08T09:43:56;96619.34;;;32.42;37.40
79127;BME280;68528;48.814;8.904;2023-09-08T09:46:22;96617.94;;;32.58;36.72
79127;BME280;68528;48.814;8.904;2023-09-08T09:48:53;96627.03;;;33.10;35.17
79127;BME280;68528;48.814;8.904;2023-09-08T09:51:19;96614.28;;;33.48;33.64
79127;BME280;68528;48.814;8.904;2023-09-08T09:53:45;96616.41;;;33.53;37.76
79127;BME280;68528;48.814;8.904;2023-09-08T09:56:11;96606.56;;;33.48;35.71
79127;BME280;68528;48.814;8.904;2023-09-08T09:58:37;96613.66;;;33.16;34.38
79127;BME280;68528;48.814;8.904;2023-09-08T10:01:03;96607.91;;;32.99;37.07
79127;BME280;68528;48.814;8.904;2023-09-08T10:03:29;96609.28;;;33.20;35.04
79127;BME280;68528;48.814;8.904;2023-09-08T10:05:56;96615.31;;;33.39;34.10
79127;BME280;68528;48.814;8.904;2023-09-08T10:08:22;96607.06;;;33.41;34.05
79127;BME280;68528;48.814;8.904;2023-09-08T10:10:47;96608.75;;;33.16;36.20
79127;BME280;68528;48.814;8.904;2023-09-08T10:13:23;96612.66;;;33.19;35.02
79127;BME280;68528;48.814;8.904;2023-09-08T10:15:52;96606.13;;;33.02;36.70
79127;BME280;68528;48.814;8.904;2023-09-08T10:18:22;96615.00;;;33.26;34.83
79127;BME280;68528;48.814;8.904;2023-09-08T10:20:51;96603.28;;;33.55;35.66
79127;BME280;68528;48.814;8.904;2023-09-08T10:23:27;96601.25;;;33.72;36.83
79127;BME280;68528;48.814;8.904;2023-09-08T10:25:59;96597.88;;;33.68;33.50
79127;BME280;68528;48.814;8.904;2023-09-08T10:28:28;96608.56;;;33.31;35.58
79127;BME280;68528;48.814;8.904;2023-09-08T10:31:12;96595.59;;;33.13;34.74
79127;BME280;68528;48.814;8.904;2023-09-08T10:33:40;96607.03;;;33.30;37.10
79127;BME280;68528;48.814;8.904;2023-09-08T10:36:08;96592.06;;;33.35;34.84
79127;BME280;68528;48.814;8.904;2023-09-08T10:38:35;96591.91;;;33.50;34.31
79127;BME280;68528;48.814;8.904;2023-09-08T10:43:57;96593.50;;;33.73;34.89
79127;BME280;68528;48.814;8.904;2023-09-08T10:46:26;96587.81;;;33.84;33.38
79127;BME280;68528;48.814;8.904;2023-09-08T10:49:01;96592.22;;;33.68;36.70
79127;BME280;68528;48.814;8.904;2023-09-08T10:51:28;96594.09;;;32.76;39.89
79127;BME280;68528;48.814;8.904;2023-09-08T10:53:55;96597.78;;;32.50;38.75
79127;BME280;68528;48.814;8.904;2023-09-08T10:56:48;96603.13;;;32.80;39.12
79127;BME280;68528;48.814;8.904;2023-09-08T10:59:28;96595.13;;;32.78;36.33
79127;BME280;68528;48.814;8.904;2023-09-08T11:01:55;96589.06;;;32.60;35.33
79127;BME280;68528;48.814;8.904;2023-09-08T11:04:23;96598.78;;;32.47;36.21
79127;BME280;68528;48.814;8.904;2023-09-08T11:07:25;96594.22;;;32.24;37.96
79127;BME280;68528;48.814;8.904;2023-09-08T11:10:12;96594.63;;;31.86;40.06
79127;BME280;68528;48.814;8.904;2023-09-08T11:12:38;96596.94;;;32.13;36.73
79127;BME280;68528;48.814;8.904;2023-09-08T11:15:06;96587.06;;;32.34;36.87
79127;BME280;68528;48.814;8.904;2023-09-08T11:17:35;96590.22;;;32.11;38.63
79127;BME280;68528;48.814;8.904;2023-09-08T11:20:27;96584.44;;;32.57;36.27
79127;BME280;68528;48.814;8.904;2023-09-08T11:22:52;96589.63;;;32.64;40.71
79127;BME280;68528;48.814;8.904;2023-09-08T11:25:20;96592.19;;;32.62;35.62
79127;BME280;68528;48.814;8.904;2023-09-08T11:27:45;96593.47;;;32.29;39.27
79127;BME280;68528;48.814;8.904;2023-09-08T11:30:12;96589.13;;;32.34;36.70
79127;BME280;68528;48.814;8.904;2023-09-08T11:32:46;96582.69;;;32.33;36.94
79127;BME280;68528;48.814;8.904;2023-09-08T11:35:12;96587.78;;;31.27;39.64
79127;BME280;68528;48.814;8.904;2023-09-08T11:37:40;96583.50;;;31.37;39.51
79127;BME280;68528;48.814;8.904;2023-09-08T11:40:07;96577.38;;;31.90;40.09
79127;BME280;68528;48.814;8.904;2023-09-08T11:42:38;96578.84;;;32.36;37.41
79127;BME280;68528;48.814;8.904;2023-09-08T11:45:10;96588.00;;;32.52;35.95
79127;BME280;68528;48.814;8.904;2023-09-08T11:47:42;96589.72;;;32.43;40.61
79127;BME280;68528;48.814;8.904;2023-09-08T11:50:12;96587.25;;;31.94;37.42
79127;BME280;68528;48.814;8.904;2023-09-08T11:52:43;96588.47;;;31.22;40.94
79127;BME280;68528;48.814;8.904;2023-09-08T11:55:09;96581.94;;;31.56;41.40
79127;BME280;68528;48.814;8.904;2023-09-08T11:57:35;96588.13;;;31.80;37.65
79127;BME280;68528;48.814;8.904;2023-09-08T12:00:02;96590.00;;;31.89;38.56
79127;BME280;68528;48.814;8.904;2023-09-08T12:02:36;96588.13;;;31.80;37.27
79127;BME280;68528;48.814;8.904;2023-09-08T12:05:05;96579.78;;;31.71;37.73
79127;BME280;68528;48.814;8.904;2023-09-08T12:07:46;96586.16;;;31.66;37.78
79127;BME280;68528;48.814;8.904;2023-09-08T12:10:11;96586.25;;;31.51;39.26
79127;BME280;68528;48.814;8.904;2023-09-08T12:12:49;96579.66;;;31.60;37.52
79127;BME280;68528;48.814;8.904;2023-09-08T12:15:31;96588.59;;;31.33;42.15
79127;BME280;68528;48.814;8.904;2023-09-08T12:17:58;96582.59;;;31.45;37.99
79127;BME280;68528;48.814;8.904;2023-09-08T12:20:23;96578.56;;;31.52;43.28
79127;BME280;68528;48.814;8.904;2023-09-08T12:22:52;96578.44;;;31.66;42.21
79127;BME280;68528;48.814;8.904;2023-09-08T12:25:18;96578.34;;;31.81;37.50
79127;BME280;68528;48.814;8.904;2023-09-08T12:27:44;96572.78;;;31.41;38.40
79127;BME280;68528;48.814;8.904;2023-09-08T12:30:20;96574.19;;;31.31;38.10
79127;BME280;68528;48.814;8.904;2023-09-08T12:32:47;96570.38;;;31.34;37.91
79127;BME280;68528;48.814;8.904;2023-09-08T12:35:19;96573.63;;;31.47;38.36
79127;BME280;68528;48.814;8.904;2023-09-08T12:37:46;96576.22;;;31.30;41.24
79127;BME280;68528;48.814;8.904;2023-09-08T12:40:12;96567.75;;;31.10;42.75
79127;BME280;68528;48.814;8.904;2023-09-08T12:42:57;96577.22;;;31.27;42.47
79127;BME280;68528;48.814;8.904;2023-09-08T12:45:27;96561.78;;;31.28;37.53
79127;BME280;68528;48.814;8.904;2023-09-08T12:47:54;96554.97;;;30.94;41.05
79127;BME280;68528;48.814;8.904;2023-09-08T12:50:20;96552.34;;;30.71;39.51
79127;BME280;68528;48.814;8.904;2023-09-08T12:52:45;96555.47;;;30.58;39.37
79127;BME280;68528;48.814;8.904;2023-09-08T12:55:11;96559.03;;;30.53;39.80
79127;BME280;68528;48.814;8.904;2023-09-08T12:57:36;96550.00;;;30.35;43.14
79127;BME280;68528;48.814;8.904;2023-09-08T13:00:05;96544.09;;;30.33;43.26
79127;BME280;68528;48.814;8.904;2023-09-08T13:02:31;96550.38;;;30.42;45.17
79127;BME280;68528;48.814;8.904;2023-09-08T13:04:57;96553.38;;;30.53;40.22
79127;BME280;68528;48.814;8.904;2023-09-08T13:07:24;96551.09;;;30.57;42.85
79127;BME280;68528;48.814;8.904;2023-09-08T13:09:49;96547.94;;;30.35;42.15
79127;BME280;68528;48.814;8.904;2023-09-08T13:12:16;96544.59;;;29.73;43.83
79127;BME280;68528;48.814;8.904;2023-09-08T13:14:41;96550.91;;;29.82;43.00
79127;BME280;68528;48.814;8.904;2023-09-08T13:17:08;96559.50;;;29.88;42.56
79127;BME280;68528;48.814;8.904;2023-09-08T13:19:41;96546.25;;;29.94;40.98